Oxford, PA

1:47 AM EDT on October 02, 2014 (GMT -0400)
Historic Hopewell Vineyards | Change Station
CLOSE
Current Station
Personal Weather Station
Location: Oxford, PA
Elevation: 413 ft
Nearby Weather Stations

Elev 413 ft 39.78 °N, 76.02 °W | Updated 33 seconds ago

Partly Cloudy
Partly Cloudy
59.0 °F
Feels Like 59.0 °F
N
0.0
Wind Variable Wind from NNW

Today
High -- | Low -- °F
--% Chance of Precip.
Yesterday
High -- | Low -- °F
Precip. -- in
7:01 AM 6:44 PM
First Quarter, 55% visible
Pressure 30.10 in
Visibility 10.0 miles
Clouds Clear
Dew Point 57 °F
Humidity 93%
Rainfall 0.00 in
Snow Depth Not available.
UV 0 out of 12
Pollen 3.10 out of 12
Air Quality Not available.
Flu Activity Not available.
METAR KMQS 020535Z AUTO 00000KT 10SM CLR 14/14 A3010 RMK AO2

More Conditions Fewer Conditions

Pressure 30.10 in
Visibility 10.0 miles
Clouds Clear
Dew Point 57 °F
Humidity 93%
Rainfall 0.00 in
Snow Depth Not available.
UV 0 out of 12
Pollen 3.10 out of 12
Air Quality Not available.
Flu Activity Not available.
METAR KMQS 020535Z AUTO 00000KT 10SM CLR 14/14 A3010 RMK AO2

More Conditions Fewer Conditions

10-Day Weather Forecast

Almanac

Astronomy

Oct. 02, 2014 Rise Set
Actual Time 7:01 AM EDT 6:44 PM EDT
Civil Twilight 6:34 AM EDT 7:11 PM EDT
Nautical Twilight 6:02 AM EDT 7:42 PM EDT
Astronomical Twilight 5:31 AM EDT 8:14 PM EDT
Moon 2:48 PM EDT 12:16 AM EDT
Length of Visible Light 12h 37m
Length of Day
11h 43m
Tomorrow will be 2m 35s shorter.
First Quarter, 55% of the Moon is Illuminated
Today
First Quarter
Oct 8
Full
Oct 15
Last Quarter
Oct 23
New
Oct 30
First Quarter

Today's Extremes

State Highs State Lows

Community

WunderPhotos

Upload Photos

1,758,197 photos uploaded!

Nearby

Snow Depth

Station Depth Elevation
No new snow has been reported.

Earthquake Activity

City Distance Mag. Time & Date
No recent earthquake activity has been reported nearby.
Minimum magnitude displayed is 2.5.

Coastal Water Temperatures

Place Temperature
Tolchester Beach, MD 72.0 °F
Chesapeake City, MD 71.1 °F
Baltimore, MD 73.9 °F

Nearby Weather Stations